Time;durP1;ratioP1;P1;durP2;ratioP2;P2;SDS_P1;SDS_P2;PMS_P1;PMS_P2;Temp;Humidity;BMP_temperature;BMP_pressure;BME280_temperature;BME280_humidity;BME280_pressure;Samples;Min_cycle;Max_cycle;Signal;HPM_P1;HPM_P2
2022/12/25 00:00:25;;;;;;;11.20;1.98;;;11.00;99.90;;;;;;5070388;28;20025;-45
2022/12/25 00:02:51;;;;;;;9.80;2.03;;;11.00;99.90;;;;;;5070573;28;20150;-43
2022/12/25 00:05:17;;;;;;;6.07;1.80;;;11.00;99.90;;;;;;5069532;28;20016;-47
2022/12/25 00:07:42;;;;;;;11.20;2.85;;;11.00;99.90;;;;;;5069867;28;20082;-51
2022/12/25 00:10:08;;;;;;;5.47;1.33;;;10.90;99.90;;;;;;5070102;28;20097;-49
2022/12/25 00:12:34;;;;;;;6.75;1.77;;;11.00;99.90;;;;;;5070177;28;20041;-39
2022/12/25 00:15:00;;;;;;;6.38;1.55;;;10.90;99.90;;;;;;5070319;28;20051;-41
2022/12/25 00:17:26;;;;;;;13.10;2.60;;;11.00;99.90;;;;;;5070219;28;20027;-39
2022/12/25 00:19:51;;;;;;;6.38;2.22;;;10.90;99.90;;;;;;5070160;28;20107;-45
2022/12/25 00:22:17;;;;;;;6.72;1.92;;;10.90;99.90;;;;;;5052335;28;20040;-46
2022/12/25 00:24:42;;;;;;;10.50;2.10;;;10.90;99.90;;;;;;5069914;28;20035;-42
2022/12/25 00:27:08;;;;;;;7.70;1.67;;;10.90;99.90;;;;;;5070096;28;20020;-39
2022/12/25 00:29:34;;;;;;;8.55;2.00;;;10.90;99.90;;;;;;5070093;28;20105;-39
2022/12/25 00:32:00;;;;;;;10.32;1.48;;;10.90;99.90;;;;;;5072723;28;20075;-40
2022/12/25 00:34:25;;;;;;;7.20;1.98;;;10.90;99.90;;;;;;5073850;28;20035;-40
2022/12/25 00:36:51;;;;;;;7.63;1.90;;;10.90;99.90;;;;;;5073933;28;20379;-43
2022/12/25 00:39:17;;;;;;;11.95;1.83;;;10.80;99.90;;;;;;5073537;28;20541;-44
2022/12/25 00:44:27;;;;;;;10.63;3.05;;;10.90;99.90;;;;;;5073577;28;20028;-38
2022/12/25 00:46:53;;;;;;;8.95;1.75;;;10.90;99.90;;;;;;5073618;28;20036;-44
2022/12/25 00:49:22;;;;;;;6.57;1.90;;;10.90;99.90;;;;;;5073301;28;20032;-42
2022/12/25 00:51:49;;;;;;;6.30;1.85;;;10.90;99.90;;;;;;5071805;28;20032;-40
2022/12/25 00:54:14;;;;;;;7.65;2.03;;;11.00;99.90;;;;;;5073017;28;20111;-41
2022/12/25 00:56:40;;;;;;;7.47;2.05;;;11.00;99.90;;;;;;5073208;28;20078;-41
2022/12/25 00:59:05;;;;;;;6.25;1.80;;;11.00;99.90;;;;;;5071640;28;20118;-50
2022/12/25 01:01:33;;;;;;;12.27;2.38;;;11.00;99.90;;;;;;5073193;28;20035;-39
2022/12/25 01:03:59;;;;;;;10.23;1.95;;;11.00;99.90;;;;;;5073233;28;20024;-44
2022/12/25 01:06:25;;;;;;;10.30;2.30;;;11.00;99.90;;;;;;5073052;28;21441;-42
2022/12/25 01:11:35;;;;;;;8.23;2.10;;;11.00;99.90;;;;;;5070358;28;20055;-47
2022/12/25 01:14:01;;;;;;;10.73;2.33;;;11.00;99.90;;;;;;5073257;28;20058;-48
2022/12/25 01:16:27;;;;;;;15.18;2.35;;;11.00;99.90;;;;;;5072809;28;20390;-47
2022/12/25 01:18:52;;;;;;;9.93;2.30;;;11.00;99.90;;;;;;5072944;28;20116;-39
2022/12/25 01:21:20;;;;;;;12.70;2.42;;;10.90;99.90;;;;;;5072922;28;20591;-46
2022/12/25 01:23:46;;;;;;;20.02;2.70;;;11.00;99.90;;;;;;5072912;28;20032;-40
2022/12/25 01:26:14;;;;;;;9.85;2.20;;;11.00;99.90;;;;;;5072998;28;20047;-48
2022/12/25 01:28:40;;;;;;;11.98;2.05;;;10.90;99.90;;;;;;5072659;28;20514;-39
2022/12/25 01:31:12;;;;;;;13.77;1.80;;;10.90;99.90;;;;;;5072855;28;20021;-41
2022/12/25 01:33:39;;;;;;;9.25;2.53;;;10.90;99.90;;;;;;5072677;28;20044;-42
2022/12/25 01:36:19;;;;;;;9.40;2.10;;;11.00;99.90;;;;;;5072638;28;20027;-42
2022/12/25 01:38:45;;;;;;;11.88;2.35;;;11.00;99.90;;;;;;5072686;28;20028;-46
2022/12/25 01:41:13;;;;;;;8.70;2.03;;;10.90;99.90;;;;;;5072384;28;20024;-43
2022/12/25 01:43:57;;;;;;;12.80;2.55;;;10.90;99.90;;;;;;5072391;28;20043;-42
2022/12/25 01:46:23;;;;;;;16.60;2.55;;;11.00;99.90;;;;;;5072547;28;20021;-47
2022/12/25 01:48:50;;;;;;;12.20;1.80;;;11.00;99.90;;;;;;5072383;28;20394;-39
2022/12/25 01:51:39;;;;;;;9.52;2.38;;;11.00;99.90;;;;;;5072190;28;20468;-44
2022/12/25 01:54:16;;;;;;;9.98;2.10;;;11.00;99.90;;;;;;5072336;28;20407;-42
2022/12/25 01:56:44;;;;;;;9.18;3.17;;;11.00;99.90;;;;;;5072311;28;20475;-41
2022/12/25 01:59:12;;;;;;;7.78;1.70;;;11.00;99.90;;;;;;5072215;28;20094;-41
2022/12/25 02:01:38;;;;;;;10.40;1.88;;;10.90;99.90;;;;;;5072077;28;20024;-41
2022/12/25 02:04:37;;;;;;;8.43;1.80;;;10.90;99.90;;;;;;5072317;28;20024;-41
2022/12/25 02:07:13;;;;;;;8.20;1.80;;;10.90;99.90;;;;;;5056008;28;20115;-46
2022/12/25 02:09:39;;;;;;;9.00;2.00;;;10.90;99.90;;;;;;5071906;28;20541;-40
2022/12/25 02:12:06;;;;;;;11.18;1.80;;;10.90;99.90;;;;;;5072085;28;20037;-38
2022/12/25 02:14:35;;;;;;;8.95;1.90;;;10.90;99.90;;;;;;5071867;28;20024;-41
2022/12/25 02:17:08;;;;;;;9.02;1.70;;;10.90;99.90;;;;;;5072074;28;20028;-40
2022/12/25 02:19:49;;;;;;;13.35;2.13;;;10.90;99.90;;;;;;5071866;28;20120;-40
2022/12/25 02:22:29;;;;;;;9.68;1.80;;;10.90;99.90;;;;;;5071843;28;20028;-39
2022/12/25 02:25:16;;;;;;;7.90;1.60;;;10.80;99.90;;;;;;5071675;28;20475;-46
2022/12/25 02:28:12;;;;;;;8.50;2.55;;;10.80;99.90;;;;;;5071425;28;20397;-41
2022/12/25 02:30:48;;;;;;;11.32;2.53;;;10.80;99.90;;;;;;5067455;28;20045;-41
2022/12/25 02:36:15;;;;;;;13.80;1.95;;;10.90;99.90;;;;;;5071961;28;20035;-39
2022/12/25 02:41:29;;;;;;;13.52;2.03;;;10.90;99.90;;;;;;5071854;28;20071;-45
2022/12/25 03:06:43;;;;;;;12.27;1.77;;;10.90;99.90;;;;;;5070810;28;20031;-41
2022/12/25 03:12:28;;;;;;;14.25;1.80;;;10.90;99.90;;;;;;5071018;28;20062;-42
2022/12/25 03:17:37;;;;;;;9.23;1.75;;;11.00;99.90;;;;;;5070885;28;20089;-47
2022/12/25 03:28:17;;;;;;;7.43;1.30;;;11.00;99.90;;;;;;5055404;28;20051;-39
2022/12/25 03:31:11;;;;;;;11.85;1.92;;;11.00;99.90;;;;;;5053039;28;20021;-41
2022/12/25 03:37:21;;;;;;;;;;;11.00;99.90;;;;;;5071201;28;20112;-46
2022/12/25 04:36:08;;;;;;;8.57;3.50;;;11.10;99.90;;;;;;5074190;28;20121;-43
2022/12/25 04:38:34;;;;;;;7.70;2.10;;;11.10;99.90;;;;;;5073658;28;20024;-44
2022/12/25 04:41:00;;;;;;;7.72;2.10;;;11.20;99.90;;;;;;5073744;28;20483;-46
2022/12/25 04:43:26;;;;;;;6.00;2.08;;;11.10;99.90;;;;;;5073685;28;20036;-45
2022/12/25 04:45:56;;;;;;;7.13;2.13;;;11.10;99.90;;;;;;5073846;28;20032;-45
2022/12/25 04:48:23;;;;;;;9.93;1.90;;;11.10;99.90;;;;;;5073735;28;20094;-56
2022/12/25 04:50:49;;;;;;;10.18;2.08;;;11.10;99.90;;;;;;5073486;28;20514;-39
2022/12/25 04:53:15;;;;;;;8.35;1.80;;;11.20;99.90;;;;;;5073552;28;20029;-50
2022/12/25 04:55:41;;;;;;;6.30;1.90;;;11.10;99.90;;;;;;5073288;28;20044;-43
2022/12/25 04:58:07;;;;;;;6.65;1.63;;;11.20;99.90;;;;;;5073447;28;20052;-45
2022/12/25 05:00:32;;;;;;;5.28;1.73;;;11.20;99.90;;;;;;5073569;28;20044;-53
2022/12/25 05:02:58;;;;;;;5.80;1.73;;;11.20;99.90;;;;;;5073183;28;20498;-48
2022/12/25 05:05:23;;;;;;;13.30;2.63;;;11.20;99.90;;;;;;5073371;28;20017;-42
2022/12/25 05:07:49;;;;;;;4.80;1.67;;;11.20;99.90;;;;;;5073091;28;20024;-40
2022/12/25 05:10:15;;;;;;;14.48;2.40;;;11.20;99.90;;;;;;5055205;28;20028;-39
2022/12/25 05:12:41;;;;;;;8.25;2.00;;;11.20;99.90;;;;;;5073184;28;20016;-40
2022/12/25 05:15:07;;;;;;;8.15;1.73;;;11.20;99.90;;;;;;5073026;28;20020;-39
2022/12/25 05:17:33;;;;;;;9.30;1.90;;;11.10;99.90;;;;;;5072411;28;20028;-48
2022/12/25 05:19:58;;;;;;;8.73;2.22;;;11.10;99.90;;;;;;5072945;28;20025;-42
2022/12/25 05:22:24;;;;;;;6.60;1.90;;;11.10;99.90;;;;;;5072865;28;20029;-49
2022/12/25 05:24:49;;;;;;;5.70;1.83;;;11.20;99.90;;;;;;5072763;28;20071;-51
2022/12/25 05:27:15;;;;;;;9.43;2.20;;;11.20;99.90;;;;;;5072855;28;20387;-39
2022/12/25 05:29:41;;;;;;;8.55;2.00;;;11.10;99.90;;;;;;5072524;28;20045;-40
2022/12/25 05:32:07;;;;;;;10.80;2.33;;;11.10;99.90;;;;;;5072897;28;20016;-39
2022/12/25 05:34:33;;;;;;;13.82;2.25;;;11.10;99.90;;;;;;5072937;28;20052;-48
2022/12/25 05:36:58;;;;;;;7.78;2.05;;;11.10;99.90;;;;;;5072679;28;20200;-43
2022/12/25 05:39:24;;;;;;;8.98;2.40;;;11.10;99.90;;;;;;5072558;28;20492;-48
2022/12/25 05:41:50;;;;;;;8.52;2.25;;;11.10;99.90;;;;;;5072513;28;20020;-39
2022/12/25 05:44:16;;;;;;;10.85;2.10;;;11.00;99.90;;;;;;5072745;28;20086;-52
2022/12/25 05:46:41;;;;;;;9.18;1.90;;;11.10;99.90;;;;;;5072617;28;20024;-46
2022/12/25 05:49:08;;;;;;;10.75;2.10;;;11.10;99.90;;;;;;5072594;28;20487;-43
2022/12/25 05:51:33;;;;;;;11.90;2.10;;;11.10;99.90;;;;;;5072394;28;20028;-43
2022/12/25 05:53:59;;;;;;;5.90;1.80;;;11.10;99.90;;;;;;5072181;28;20096;-46
2022/12/25 05:56:25;;;;;;;10.32;2.10;;;11.10;99.90;;;;;;5072525;28;20039;-41
2022/12/25 05:58:51;;;;;;;10.80;2.42;;;11.10;99.90;;;;;;5072166;28;20028;-44
2022/12/25 06:01:20;;;;;;;12.88;3.05;;;11.10;99.90;;;;;;5072318;28;20074;-48
2022/12/25 06:03:46;;;;;;;12.60;2.72;;;11.10;99.90;;;;;;5072066;28;20535;-44
2022/12/25 06:06:12;;;;;;;12.48;2.75;;;11.10;99.90;;;;;;5054411;28;20028;-49
2022/12/25 06:08:38;;;;;;;15.43;3.00;;;11.10;99.90;;;;;;5071973;28;20040;-51
2022/12/25 06:11:05;;;;;;;11.30;2.63;;;11.10;99.90;;;;;;5071991;28;20115;-47
2022/12/25 06:13:33;;;;;;;10.02;2.63;;;11.10;99.90;;;;;;5071991;28;20461;-40
2022/12/25 06:15:58;;;;;;;7.88;2.30;;;11.10;99.90;;;;;;5071975;28;20044;-41
2022/12/25 06:18:25;;;;;;;10.23;3.05;;;11.10;99.90;;;;;;5071845;28;20375;-51
2022/12/25 06:20:50;;;;;;;11.73;2.95;;;11.10;99.90;;;;;;5071819;28;20023;-45
2022/12/25 06:23:16;;;;;;;10.80;2.42;;;11.10;99.90;;;;;;5071685;28;20028;-54
2022/12/25 06:25:42;;;;;;;13.88;2.78;;;11.00;99.90;;;;;;5054000;28;20097;-57
2022/12/25 06:28:07;;;;;;;12.82;2.83;;;11.10;99.90;;;;;;5070822;28;20052;-48
2022/12/25 06:30:33;;;;;;;13.38;3.08;;;11.10;99.90;;;;;;5071519;28;20185;-39
2022/12/25 06:32:59;;;;;;;15.68;3.80;;;11.10;99.90;;;;;;5071673;28;20110;-43
2022/12/25 06:35:25;;;;;;;12.32;3.40;;;11.00;99.90;;;;;;5071561;28;20021;-46
2022/12/25 06:37:51;;;;;;;12.07;3.05;;;11.00;99.90;;;;;;5071607;28;20106;-46
2022/12/25 06:40:16;;;;;;;12.20;3.28;;;11.10;99.90;;;;;;5071253;28;20109;-42
2022/12/25 06:42:42;;;;;;;10.05;2.88;;;11.00;99.90;;;;;;5071666;28;20468;-43
2022/12/25 06:45:08;;;;;;;11.15;2.95;;;11.00;99.90;;;;;;5071349;28;20050;-50
2022/12/25 06:47:35;;;;;;;11.55;2.72;;;11.00;99.90;;;;;;5071023;28;20021;-49
2022/12/25 06:50:01;;;;;;;10.65;2.45;;;11.00;99.90;;;;;;5071388;28;20495;-43
2022/12/25 06:52:27;;;;;;;8.60;2.33;;;11.00;99.90;;;;;;5071123;28;20067;-48
2022/12/25 06:54:52;;;;;;;10.07;2.72;;;11.00;99.90;;;;;;5071398;28;20028;-55
2022/12/25 06:57:18;;;;;;;5.65;2.25;;;11.00;99.90;;;;;;5083305;28;20024;-44
2022/12/25 06:59:43;;;;;;;9.95;2.70;;;11.00;99.90;;;;;;5071183;28;20390;-51
2022/12/25 07:02:20;;;;;;;13.13;2.28;;;11.00;99.90;;;;;;5070825;28;20017;-41
2022/12/25 07:04:46;;;;;;;12.10;2.90;;;11.00;99.90;;;;;;5071023;28;20070;-44
2022/12/25 07:07:13;;;;;;;12.20;2.63;;;11.00;99.90;;;;;;5070992;28;20468;-47
2022/12/25 07:09:41;;;;;;;12.90;2.88;;;11.10;99.90;;;;;;5070831;28;20085;-43
2022/12/25 07:12:16;;;;;;;9.57;2.67;;;11.00;99.90;;;;;;5070826;28;20107;-45
2022/12/25 07:14:44;;;;;;;5.13;2.00;;;11.00;99.90;;;;;;5070641;28;20099;-46
2022/12/25 07:17:10;;;;;;;9.55;2.00;;;11.00;99.90;;;;;;5070897;28;20024;-42
2022/12/25 07:19:35;;;;;;;9.75;2.47;;;11.00;99.90;;;;;;5070539;28;20544;-41
2022/12/25 07:22:01;;;;;;;7.30;2.30;;;11.00;99.90;;;;;;5070760;28;20502;-46
2022/12/25 07:24:26;;;;;;;9.23;2.60;;;11.00;99.90;;;;;;5070219;28;20028;-38
2022/12/25 07:26:52;;;;;;;9.00;2.58;;;11.00;99.90;;;;;;5070590;28;20028;-47
2022/12/25 07:29:21;;;;;;;11.07;2.20;;;11.00;99.90;;;;;;5070414;28;20518;-46
2022/12/25 07:31:46;;;;;;;9.27;2.78;;;11.00;99.90;;;;;;5070392;28;20029;-42
2022/12/25 07:34:12;;;;;;;7.70;2.00;;;11.00;99.90;;;;;;5070550;28;20103;-40
2022/12/25 07:36:38;;;;;;;8.77;2.05;;;11.00;99.90;;;;;;5070388;28;20021;-47
2022/12/25 07:39:04;;;;;;;6.43;2.20;;;11.00;99.90;;;;;;5070141;28;20391;-42
2022/12/25 07:41:29;;;;;;;6.18;2.08;;;11.00;99.90;;;;;;5070502;28;20055;-47
2022/12/25 07:43:55;;;;;;;11.43;2.47;;;11.00;99.90;;;;;;5070472;28;20028;-52
2022/12/25 07:46:22;;;;;;;9.82;2.03;;;11.00;99.90;;;;;;5070629;28;20437;-49
2022/12/25 07:48:48;;;;;;;10.25;2.00;;;11.00;99.90;;;;;;5069973;28;20392;-41
2022/12/25 07:51:15;;;;;;;11.18;2.03;;;11.00;99.90;;;;;;5070297;28;20024;-46
2022/12/25 07:53:41;;;;;;;8.88;2.13;;;11.00;99.90;;;;;;5069992;28;20376;-46
2022/12/25 07:56:25;;;;;;;9.30;2.10;;;11.00;99.90;;;;;;5068464;28;20104;-50
2022/12/25 07:58:50;;;;;;;9.15;2.08;;;10.90;99.90;;;;;;5068505;28;20067;-39
2022/12/25 08:01:18;;;;;;;5.22;1.75;;;10.90;99.90;;;;;;5071212;28;20031;-39
2022/12/25 08:03:49;;;;;;;8.77;1.55;;;10.90;99.90;;;;;;5067673;28;20491;-42
2022/12/25 08:06:14;;;;;;;13.10;2.13;;;10.90;99.90;;;;;;5073841;28;20078;-41
2022/12/25 08:08:40;;;;;;;7.68;1.88;;;10.80;99.90;;;;;;5073548;28;20052;-47
2022/12/25 08:11:08;;;;;;;11.07;1.90;;;10.80;99.90;;;;;;5038505;28;20021;-40
2022/12/25 08:13:34;;;;;;;10.05;2.08;;;10.80;99.90;;;;;;5075123;28;20105;-44
2022/12/25 08:16:06;;;;;;;9.43;2.38;;;10.80;99.90;;;;;;5070357;28;20020;-40
2022/12/25 08:18:32;;;;;;;6.07;1.52;;;10.90;99.90;;;;;;5082514;28;20024;-41
2022/12/25 08:21:03;;;;;;;7.32;2.20;;;10.90;99.90;;;;;;5081726;28;20409;-42
2022/12/25 08:23:29;;;;;;;8.88;2.00;;;10.90;99.90;;;;;;5084977;28;20020;-46
2022/12/25 08:25:59;;;;;;;6.80;2.10;;;10.90;99.90;;;;;;5086096;28;20379;-39
2022/12/25 08:28:25;;;;;;;10.05;2.50;;;10.90;99.90;;;;;;5084436;28;20048;-39
2022/12/25 08:30:50;;;;;;;6.65;2.55;;;10.80;99.90;;;;;;5084170;28;20028;-46
2022/12/25 08:33:16;;;;;;;11.10;3.08;;;10.80;99.90;;;;;;5084066;28;20108;-41
2022/12/25 08:35:41;;;;;;;9.18;2.25;;;10.80;99.90;;;;;;5083518;28;20085;-42
2022/12/25 08:38:07;;;;;;;13.57;2.42;;;10.80;99.90;;;;;;5079624;28;20023;-47
2022/12/25 08:40:33;;;;;;;11.32;2.35;;;10.80;99.90;;;;;;5082954;28;20039;-43
2022/12/25 08:42:58;;;;;;;7.28;2.00;;;10.80;99.90;;;;;;5085429;28;20020;-43
2022/12/25 08:45:24;;;;;;;9.70;3.30;;;10.80;99.90;;;;;;5084539;28;20224;-43
2022/12/25 08:47:54;;;;;;;7.72;2.08;;;10.80;99.90;;;;;;5068113;28;20016;-43
2022/12/25 08:50:23;;;;;;;10.00;2.65;;;10.80;99.90;;;;;;5070722;28;20040;-40
2022/12/25 08:52:49;;;;;;;11.10;2.40;;;10.90;99.90;;;;;;5067505;28;20529;-39
2022/12/25 08:55:15;;;;;;;8.52;2.28;;;10.90;99.90;;;;;;5071453;28;20036;-46
2022/12/25 08:57:41;;;;;;;9.23;2.10;;;10.90;99.90;;;;;;5073089;28;20021;-42
2022/12/25 09:00:08;;;;;;;7.72;2.05;;;10.90;99.90;;;;;;5070434;28;20028;-39
2022/12/25 09:02:33;;;;;;;8.10;2.53;;;10.90;99.90;;;;;;5072665;28;20479;-40
2022/12/25 09:04:59;;;;;;;11.40;2.80;;;10.90;99.90;;;;;;5076018;28;20028;-39
2022/12/25 09:07:25;;;;;;;10.45;2.75;;;10.90;99.90;;;;;;5081289;28;20028;-42
2022/12/25 09:09:50;;;;;;;7.55;2.53;;;10.90;99.90;;;;;;5073187;28;20033;-42
2022/12/25 09:12:16;;;;;;;6.70;2.75;;;10.90;99.90;;;;;;5084266;28;20016;-45
2022/12/25 09:14:41;;;;;;;8.85;3.28;;;10.90;99.90;;;;;;5076290;28;20035;-40
2022/12/25 09:17:07;;;;;;;8.15;2.58;;;11.00;99.90;;;;;;5054889;28;20024;-39
2022/12/25 09:19:33;;;;;;;10.70;3.33;;;11.00;99.90;;;;;;5071771;28;20040;-41
2022/12/25 09:21:59;;;;;;;8.48;2.80;;;11.00;99.90;;;;;;5070951;28;20017;-40
2022/12/25 09:24:24;;;;;;;11.05;2.83;;;11.00;99.90;;;;;;5082790;28;20032;-40
2022/12/25 09:26:50;;;;;;;8.85;3.22;;;11.00;99.90;;;;;;5073671;28;20036;-41
2022/12/25 09:29:16;;;;;;;14.38;3.45;;;11.00;99.90;;;;;;5072491;28;20048;-42
2022/12/25 09:31:42;;;;;;;6.20;2.60;;;11.10;99.90;;;;;;5072645;28;20009;-44
2022/12/25 09:34:09;;;;;;;9.25;3.78;;;11.10;99.90;;;;;;5061933;28;20027;-49
2022/12/25 09:36:35;;;;;;;8.15;3.05;;;11.20;99.90;;;;;;5073571;28;20036;-41
2022/12/25 09:39:01;;;;;;;11.80;3.17;;;11.20;99.90;;;;;;5074309;28;20422;-51
2022/12/25 09:41:33;;;;;;;9.65;2.97;;;11.30;99.90;;;;;;5072644;28;20474;-39
2022/12/25 09:44:14;;;;;;;8.93;2.80;;;11.30;99.90;;;;;;5072393;28;20032;-46
2022/12/25 09:46:46;;;;;;;9.77;3.15;;;11.30;99.90;;;;;;5072240;28;20039;-43
2022/12/25 09:49:20;;;;;;;8.38;2.63;;;11.40;99.90;;;;;;5072299;28;20466;-48
2022/12/25 09:51:52;;;;;;;13.55;2.90;;;11.40;99.90;;;;;;5072287;28;20513;-45
2022/12/25 09:54:27;;;;;;;13.82;3.20;;;11.50;99.90;;;;;;5072318;28;20474;-39
2022/12/25 09:56:53;;;;;;;7.03;2.60;;;11.50;99.90;;;;;;5072061;28;20032;-46
2022/12/25 09:59:26;;;;;;;8.85;3.25;;;11.50;99.90;;;;;;5067898;28;20137;-46
2022/12/25 10:02:27;;;;;;;7.10;2.85;;;11.50;99.90;;;;;;5072113;28;20033;-46
2022/12/25 10:05:11;;;;;;;13.63;3.10;;;11.60;99.90;;;;;;4980759;28;20186;-44
2022/12/25 10:07:59;;;;;;;10.60;3.58;;;11.60;99.90;;;;;;5070545;28;20115;-46
2022/12/25 10:10:39;;;;;;;9.20;3.55;;;11.50;99.90;;;;;;5071918;28;20088;-43
2022/12/25 10:13:30;;;;;;;9.05;2.70;;;11.60;99.90;;;;;;5071835;28;20021;-44
2022/12/25 10:16:14;;;;;;;8.73;2.95;;;11.60;99.90;;;;;;5072091;28;20048;-53
2022/12/25 10:19:04;;;;;;;9.07;2.33;;;11.60;99.90;;;;;;5071887;28;20055;-49
2022/12/25 10:21:30;;;;;;;10.52;2.15;;;11.70;99.90;;;;;;5071809;28;20023;-42
2022/12/25 10:24:16;;;;;;;9.07;2.38;;;11.70;99.90;;;;;;5054047;28;20123;-50
2022/12/25 10:26:43;;;;;;;11.90;1.90;;;11.70;99.90;;;;;;5071705;28;20016;-46
2022/12/25 10:29:20;;;;;;;8.50;2.38;;;11.70;99.90;;;;;;5071613;28;20040;-40
2022/12/25 10:31:48;;;;;;;8.43;2.15;;;11.80;99.90;;;;;;5053566;28;20115;-44
2022/12/25 10:34:15;;;;;;;8.68;2.20;;;11.90;99.90;;;;;;5071300;28;20446;-39
2022/12/25 10:36:43;;;;;;;6.25;1.70;;;11.90;99.90;;;;;;5071774;28;20039;-41
2022/12/25 10:39:21;;;;;;;7.38;1.67;;;11.80;99.90;;;;;;5071480;28;20043;-40
2022/12/25 10:42:22;;;;;;;10.98;2.42;;;11.80;99.90;;;;;;5071428;28;20744;-39
2022/12/25 10:44:59;;;;;;;6.78;1.85;;;11.80;99.90;;;;;;5075977;28;20387;-44
2022/12/25 10:47:29;;;;;;;7.57;1.63;;;11.90;99.90;;;;;;5071308;28;20031;-52
2022/12/25 10:49:55;;;;;;;6.65;1.85;;;11.90;99.90;;;;;;5070932;28;20039;-39
2022/12/25 10:52:24;;;;;;;8.63;1.83;;;12.00;99.90;;;;;;5071015;28;20364;-48
2022/12/25 10:54:51;;;;;;;9.30;2.05;;;12.10;99.90;;;;;;5071104;28;20043;-46
2022/12/25 10:57:20;;;;;;;7.60;1.77;;;12.40;99.90;;;;;;5070878;28;20043;-39
2022/12/25 10:59:54;;;;;;;5.65;1.55;;;12.70;99.90;;;;;;5070843;28;20070;-43
2022/12/25 11:02:28;;;;;;;4.13;1.38;;;12.90;99.90;;;;;;5070868;28;20016;-41
2022/12/25 11:05:04;;;;;;;6.78;1.17;;;13.30;99.90;;;;;;5070835;28;20029;-39
2022/12/25 11:07:31;;;;;;;6.57;1.70;;;13.60;99.90;;;;;;5070945;28;20021;-45
2022/12/25 11:10:03;;;;;;;6.80;1.88;;;13.90;99.90;;;;;;5053154;28;20136;-39
2022/12/25 11:12:36;;;;;;;9.32;1.95;;;14.20;99.90;;;;;;5070856;28;20118;-41
2022/12/25 11:15:25;;;;;;;5.28;1.60;;;14.50;99.90;;;;;;5070259;28;20028;-45
2022/12/25 11:17:50;;;;;;;7.82;1.30;;;14.70;99.90;;;;;;5070577;28;20179;-41
2022/12/25 11:20:18;;;;;;;5.55;1.10;;;14.70;99.90;;;;;;5070894;28;20048;-40
2022/12/25 11:22:46;;;;;;;4.43;1.10;;;14.70;99.90;;;;;;5070724;28;20067;-42
2022/12/25 11:25:13;;;;;;;4.35;1.52;;;14.50;99.90;;;;;;5070657;28;20032;-50
2022/12/25 11:27:39;;;;;;;3.50;0.90;;;14.30;99.90;;;;;;5070824;28;20545;-43
2022/12/25 11:30:05;;;;;;;7.13;1.33;;;14.00;99.90;;;;;;5070496;28;20052;-40
2022/12/25 11:32:43;;;;;;;6.40;0.93;;;13.70;99.90;;;;;;5070618;28;20082;-45
2022/12/25 11:35:15;;;;;;;4.72;1.10;;;13.60;99.90;;;;;;5070679;28;20021;-54
2022/12/25 11:37:52;;;;;;;4.68;0.80;;;13.40;99.90;;;;;;5070659;28;20467;-46
2022/12/25 11:40:26;;;;;;;4.57;0.95;;;13.20;99.90;;;;;;5070475;28;20462;-43
2022/12/25 11:43:08;;;;;;;6.57;0.95;;;12.90;99.90;;;;;;5070772;28;20074;-43
2022/12/25 11:45:40;;;;;;;6.47;0.90;;;12.70;99.90;;;;;;5070442;28;20029;-40
2022/12/25 11:48:31;;;;;;;2.55;0.90;;;12.50;99.90;;;;;;5070420;28;20029;-47
2022/12/25 11:51:00;;;;;;;6.65;0.82;;;12.40;99.90;;;;;;5070620;28;20512;-50
2022/12/25 11:53:54;;;;;;;5.00;0.88;;;12.40;99.90;;;;;;5070564;28;20067;-43
2022/12/25 11:56:26;;;;;;;5.47;0.88;;;12.50;99.90;;;;;;5069661;28;20399;-57
2022/12/25 11:59:02;;;;;;;4.72;1.10;;;12.70;99.90;;;;;;5070535;28;20020;-44
2022/12/25 12:01:46;;;;;;;2.17;0.70;;;12.70;99.90;;;;;;5089116;28;20020;-44
2022/12/25 12:04:28;;;;;;;6.68;0.98;;;12.70;99.90;;;;;;5088580;28;20024;-46
2022/12/25 12:07:11;;;;;;;5.10;0.82;;;12.80;99.90;;;;;;5070451;28;20056;-42
2022/12/25 12:09:49;;;;;;;6.07;1.05;;;12.80;99.90;;;;;;5069895;28;20526;-39
2022/12/25 12:12:25;;;;;;;6.20;0.80;;;12.60;99.90;;;;;;5069851;28;20025;-45
2022/12/25 12:15:27;;;;;;;4.90;0.77;;;12.70;99.90;;;;;;5069739;28;20027;-44
2022/12/25 12:17:53;;;;;;;4.75;0.70;;;12.70;99.90;;;;;;5069445;28;20028;-39
2022/12/25 12:20:31;;;;;;;3.05;0.70;;;12.70;99.90;;;;;;5069749;28;20484;-38
2022/12/25 12:22:59;;;;;;;9.20;1.20;;;12.70;99.90;;;;;;5069662;28;20033;-51
2022/12/25 12:25:26;;;;;;;2.70;0.93;;;12.80;99.90;;;;;;5067400;28;20379;-43
2022/12/25 12:27:57;;;;;;;3.55;0.82;;;12.80;99.90;;;;;;5071656;28;20048;-44
2022/12/25 12:30:28;;;;;;;4.13;0.70;;;12.80;99.90;;;;;;5064013;28;20028;-44
2022/12/25 12:32:58;;;;;;;3.22;0.70;;;12.90;99.90;;;;;;5073342;28;20024;-40
2022/12/25 12:35:29;;;;;;;4.72;0.90;;;12.90;99.90;;;;;;5073538;28;20060;-43
2022/12/25 12:38:15;;;;;;;3.13;0.60;;;12.90;99.90;;;;;;5073964;28;20058;-45
2022/12/25 12:40:59;;;;;;;1.40;0.60;;;12.90;99.90;;;;;;5073896;28;20013;-42
2022/12/25 12:43:35;;;;;;;0.63;0.50;;;12.80;99.90;;;;;;5073095;28;20135;-45
2022/12/25 12:46:26;;;;;;;1.98;0.65;;;12.80;99.90;;;;;;5073403;28;20029;-44
2022/12/25 12:49:05;;;;;;;3.08;0.93;;;12.90;99.90;;;;;;5072639;28;20475;-49
2022/12/25 12:51:34;;;;;;;1.27;0.70;;;12.90;99.90;;;;;;5072675;28;20447;-43
2022/12/25 12:54:17;;;;;;;2.72;0.77;;;13.00;99.90;;;;;;5072609;28;20035;-44
2022/12/25 12:56:56;;;;;;;3.33;1.05;;;13.10;99.90;;;;;;5072646;28;20029;-47
2022/12/25 12:59:23;;;;;;;3.38;0.55;;;13.00;99.90;;;;;;5071659;28;20069;-41
2022/12/25 13:02:19;;;;;;;3.28;0.68;;;12.90;99.90;;;;;;5072279;28;20037;-44
2022/12/25 13:04:54;;;;;;;3.80;0.60;;;12.80;99.90;;;;;;5071256;28;20032;-49
2022/12/25 13:07:26;;;;;;;1.85;0.50;;;12.60;99.90;;;;;;5072328;28;20472;-41
2022/12/25 13:09:54;;;;;;;2.15;0.50;;;12.50;99.90;;;;;;5071659;28;20040;-49
2022/12/25 13:12:21;;;;;;;4.82;0.85;;;12.50;99.90;;;;;;5072705;28;20025;-52
2022/12/25 13:14:48;;;;;;;5.00;0.73;;;12.40;99.90;;;;;;5054222;28;20115;-50
2022/12/25 13:17:19;;;;;;;5.30;0.80;;;12.30;99.90;;;;;;5072383;28;20832;-46
2022/12/25 13:19:45;;;;;;;3.08;0.75;;;12.20;99.90;;;;;;5071890;28;20032;-47
2022/12/25 13:22:43;;;;;;;3.20;0.90;;;12.20;99.90;;;;;;5072966;28;20035;-38
2022/12/25 13:25:23;;;;;;;1.88;0.82;;;12.10;99.90;;;;;;5028220;28;20033;-42
2022/12/25 13:27:56;;;;;;;4.15;0.80;;;12.00;99.90;;;;;;5065763;28;20055;-40
2022/12/25 13:30:23;;;;;;;3.25;0.80;;;11.90;99.90;;;;;;5072583;28;20032;-40
2022/12/25 13:32:49;;;;;;;6.38;2.70;;;11.90;99.90;;;;;;5072533;28;20108;-38
2022/12/25 13:35:16;;;;;;;4.43;1.50;;;11.90;99.90;;;;;;5071934;28;20104;-39
2022/12/25 13:37:43;;;;;;;5.05;1.25;;;11.90;99.90;;;;;;5071798;28;20024;-40
2022/12/25 13:40:23;;;;;;;3.88;1.70;;;11.80;99.90;;;;;;5072116;28;20029;-39
2022/12/25 13:42:51;;;;;;;3.13;1.33;;;11.80;99.90;;;;;;5071985;28;20039;-38
2022/12/25 13:45:26;;;;;;;3.75;1.20;;;11.70;99.90;;;;;;5071574;28;20021;-40
2022/12/25 13:47:52;;;;;;;4.97;1.55;;;11.70;99.90;;;;;;5066259;28;20067;-38
2022/12/25 13:50:26;;;;;;;4.30;1.80;;;11.70;99.90;;;;;;5072028;28;20068;-39
2022/12/25 13:52:53;;;;;;;2.97;1.23;;;11.80;99.90;;;;;;5071102;28;20029;-44
2022/12/25 13:55:25;;;;;;;6.47;1.63;;;11.80;99.90;;;;;;5065123;28;20089;-39
2022/12/25 13:57:58;;;;;;;3.08;1.20;;;11.80;99.90;;;;;;5071496;28;20059;-42
2022/12/25 14:00:35;;;;;;;5.90;1.58;;;11.80;99.90;;;;;;5072948;28;20499;-41
2022/12/25 14:03:06;;;;;;;1.70;1.23;;;11.80;99.90;;;;;;5071398;28;20021;-41
2022/12/25 14:05:37;;;;;;;2.50;1.25;;;11.90;99.90;;;;;;5071450;28;20025;-39
2022/12/25 14:08:13;;;;;;;4.50;1.52;;;11.80;99.90;;;;;;5071396;28;20070;-38
2022/12/25 14:10:40;;;;;;;5.10;1.17;;;11.80;99.90;;;;;;5071890;28;20028;-39
2022/12/25 14:13:11;;;;;;;3.25;1.17;;;11.80;99.90;;;;;;5071826;28;20016;-42
2022/12/25 14:15:38;;;;;;;3.78;1.23;;;11.80;99.90;;;;;;5070914;28;20024;-43
2022/12/25 14:18:04;;;;;;;3.03;1.20;;;11.70;99.90;;;;;;5071496;28;20110;-44
2022/12/25 14:20:35;;;;;;;3.13;1.23;;;11.70;99.90;;;;;;5070345;28;20028;-39
2022/12/25 14:23:01;;;;;;;5.38;1.30;;;11.70;99.90;;;;;;5071635;28;20109;-43
2022/12/25 14:25:30;;;;;;;4.78;1.48;;;11.60;99.90;;;;;;5053376;28;20099;-41
2022/12/25 14:27:56;;;;;;;3.50;1.10;;;11.70;99.90;;;;;;5071228;28;20114;-39
2022/12/25 14:30:25;;;;;;;2.90;1.20;;;11.60;99.90;;;;;;5071685;28;20072;-43
2022/12/25 14:32:53;;;;;;;3.47;1.10;;;11.60;99.90;;;;;;5070918;28;20028;-40
2022/12/25 14:35:20;;;;;;;5.57;1.90;;;11.60;99.90;;;;;;5070848;28;20486;-43
2022/12/25 14:37:52;;;;;;;4.82;1.80;;;11.60;99.90;;;;;;5052481;28;20024;-39
2022/12/25 14:40:23;;;;;;;2.85;1.70;;;11.60;99.90;;;;;;5071326;28;20099;-39
2022/12/25 14:43:17;;;;;;;2.20;1.02;;;11.60;99.90;;;;;;5071245;28;20429;-41
2022/12/25 14:45:42;;;;;;;4.03;1.48;;;11.60;99.90;;;;;;5071460;28;20098;-39